Time;durP1;ratioP1;P1;durP2;ratioP2;P2;SDS_P1;SDS_P2;PMS_P1;PMS_P2;Temp;Humidity;BMP_temperature;BMP_pressure;BME280_temperature;BME280_humidity;BME280_pressure;Samples;Min_cycle;Max_cycle;Signal;HPM_P1;HPM_P2
2022/03/18 00:00:28;;;;;;;24.65;3.10;;;5.80;99.90;;;4.40;100.00;103308.00;4908337;28;20081;-76
2022/03/18 00:02:55;;;;;;;23.10;3.45;;;5.80;99.90;;;4.44;100.00;103313.28;4932413;28;20075;-76
2022/03/18 00:05:25;;;;;;;31.35;2.90;;;5.80;99.90;;;4.47;100.00;103315.06;4970969;28;20023;-76
2022/03/18 00:07:52;;;;;;;24.77;3.25;;;5.90;99.90;;;4.47;100.00;103317.69;4940705;28;20002;-77
2022/03/18 00:10:19;;;;;;;19.70;3.15;;;5.90;99.90;;;4.52;100.00;103330.00;4970203;28;20034;-77
2022/03/18 00:12:52;;;;;;;27.73;3.15;;;5.90;99.90;;;4.56;100.00;103327.44;4968630;28;20025;-77
2022/03/18 00:15:21;;;;;;;27.17;3.17;;;6.00;99.90;;;4.61;100.00;103334.50;4963564;28;20033;-77
2022/03/18 00:17:47;;;;;;;26.58;3.10;;;6.00;99.90;;;4.65;100.00;103332.84;4930316;28;20079;-77
2022/03/18 00:20:14;;;;;;;22.13;2.85;;;6.10;99.90;;;4.68;100.00;103336.38;4961946;28;20034;-77
2022/03/18 00:22:42;;;;;;;28.50;2.97;;;6.10;99.90;;;4.68;100.00;103336.38;4941520;28;20129;-77
2022/03/18 00:25:12;;;;;;;20.30;3.35;;;6.10;99.90;;;4.68;100.00;103340.72;4973379;28;20046;-77
2022/03/18 00:27:42;;;;;;;23.70;3.40;;;6.10;99.90;;;4.69;100.00;103342.50;4955763;28;20038;-77
2022/03/18 00:30:14;;;;;;;22.85;2.83;;;6.10;99.90;;;4.66;100.00;103345.03;4934528;28;20045;-76
2022/03/18 00:32:42;;;;;;;32.97;3.63;;;6.10;99.90;;;4.62;100.00;103345.81;4937995;28;20057;-77
2022/03/18 00:35:10;;;;;;;36.92;3.40;;;6.10;99.90;;;4.62;100.00;103341.50;4967862;28;20383;-77
2022/03/18 00:37:38;;;;;;;22.13;3.30;;;6.10;99.90;;;4.62;100.00;103349.34;4944889;28;20018;-77
2022/03/18 00:40:06;;;;;;;23.58;2.95;;;6.00;99.90;;;4.61;100.00;103351.91;4972034;28;20019;-77
2022/03/18 00:42:32;;;;;;;26.05;3.10;;;6.00;99.90;;;4.50;100.00;103356.91;4952465;28;20039;-77
2022/03/18 00:45:04;;;;;;;20.70;2.30;;;5.90;99.90;;;4.44;100.00;103360.25;4956503;28;20034;-76
2022/03/18 00:53:00;;;;;;;16.65;2.75;;;5.80;99.90;;;4.36;100.00;103354.00;4953913;28;20360;-76
2022/03/18 00:55:26;;;;;;;31.25;3.33;;;5.80;99.90;;;4.30;100.00;103352.16;4963467;28;20538;-76
2022/03/18 00:57:52;;;;;;;33.05;3.60;;;5.80;99.90;;;4.28;100.00;103346.03;4927532;28;20101;-76
2022/03/18 01:00:18;;;;;;;28.17;2.90;;;5.80;99.90;;;4.23;100.00;103344.16;4954631;28;20045;-76
2022/03/18 01:02:44;;;;;;;21.95;2.85;;;5.70;99.90;;;4.18;100.00;103346.66;4955782;28;20026;-76
2022/03/18 01:05:10;;;;;;;24.48;3.60;;;5.70;99.90;;;4.12;100.00;103346.53;4952898;28;20026;-76
2022/03/18 01:07:36;;;;;;;24.40;3.65;;;5.60;99.90;;;4.09;100.00;103354.28;4964102;28;20112;-76
2022/03/18 01:10:04;;;;;;;21.42;3.78;;;5.60;99.90;;;3.96;100.00;103355.72;4961213;28;21098;-77
2022/03/18 01:12:30;;;;;;;23.63;2.90;;;5.60;99.90;;;4.06;100.00;103348.97;4940012;28;20067;-77
2022/03/18 01:14:56;;;;;;;24.42;3.03;;;5.60;99.90;;;4.08;100.00;103356.03;4982613;28;20022;-76
2022/03/18 01:17:29;;;;;;;26.35;3.25;;;5.60;99.90;;;4.09;100.00;103349.06;4939572;28;20026;-77
2022/03/18 01:19:55;;;;;;;31.85;3.55;;;5.60;99.90;;;4.08;100.00;103352.50;4947194;28;20038;-77
2022/03/18 01:22:21;;;;;;;25.27;3.33;;;5.50;99.90;;;4.03;100.00;103354.16;4925084;28;20109;-77
2022/03/18 01:24:47;;;;;;;30.85;3.25;;;5.50;99.90;;;4.00;100.00;103356.69;4962958;28;20127;-77
2022/03/18 01:27:13;;;;;;;23.83;3.33;;;5.50;99.90;;;3.95;99.92;103363.50;4997288;28;20085;-76
2022/03/18 01:29:39;;;;;;;27.38;3.53;;;5.40;99.90;;;3.86;100.00;103370.25;4980672;28;20041;-77
2022/03/18 01:32:06;;;;;;;27.35;3.17;;;5.30;99.90;;;3.75;100.00;103369.13;4937747;28;20041;-77
2022/03/18 01:34:32;;;;;;;29.00;3.42;;;5.20;99.90;;;3.67;100.00;103368.97;4954640;28;20120;-77
2022/03/18 01:36:58;;;;;;;25.35;3.25;;;5.20;99.90;;;3.56;100.00;103367.78;4958187;28;20033;-76
2022/03/18 01:39:24;;;;;;;38.58;3.33;;;5.10;99.90;;;3.48;100.00;103375.44;4956359;28;20053;-77
2022/03/18 01:41:52;;;;;;;26.35;2.85;;;5.00;99.90;;;3.42;100.00;103384.81;4963924;28;20042;-76
2022/03/18 01:44:19;;;;;;;24.40;2.53;;;5.00;99.90;;;3.37;100.00;103376.91;4942069;28;20034;-77
2022/03/18 01:46:46;;;;;;;31.95;3.58;;;4.90;99.90;;;3.33;100.00;103384.59;4958151;28;20026;-76
2022/03/18 01:49:13;;;;;;;33.15;3.80;;;4.80;99.90;;;3.31;100.00;103379.34;4950270;28;20036;-76
2022/03/18 01:51:40;;;;;;;29.30;2.80;;;4.80;99.90;;;3.33;100.00;103384.59;4942952;28;20504;-77
2022/03/18 01:56:53;;;;;;;32.38;3.42;;;4.80;99.90;;;3.24;100.00;103380.00;4941061;28;20096;-77
2022/03/18 01:59:19;;;;;;;28.92;4.00;;;4.80;99.90;;;3.22;100.00;103382.59;4941773;28;20033;-76
2022/03/18 02:01:45;;;;;;;27.50;4.00;;;4.70;99.90;;;3.18;100.00;103385.94;4962687;28;20453;-76
2022/03/18 02:04:11;;;;;;;35.78;3.40;;;4.70;99.90;;;3.04;100.00;103389.88;4952764;28;20030;-76
2022/03/18 02:06:37;;;;;;;21.40;3.20;;;4.50;99.90;;;2.91;100.00;103386.06;4948539;28;20030;-77
2022/03/18 02:09:04;;;;;;;26.02;2.88;;;4.50;99.90;;;2.83;100.00;103391.06;4959573;28;20046;-76
2022/03/18 02:11:33;;;;;;;27.42;3.22;;;4.40;99.90;;;2.71;100.00;103390.72;4922593;28;20403;-77
2022/03/18 02:13:59;;;;;;;21.67;3.00;;;4.30;99.90;;;2.64;100.00;103407.88;4963848;28;20034;-76
2022/03/18 02:16:25;;;;;;;20.90;2.63;;;4.20;99.90;;;2.57;100.00;103405.03;4950670;28;20047;-76
2022/03/18 02:18:51;;;;;;;23.23;3.00;;;4.10;99.90;;;2.43;100.00;103402.03;4957466;28;20176;-76
2022/03/18 02:21:17;;;;;;;19.98;2.97;;;4.00;99.90;;;2.35;100.00;103398.31;4947986;28;20048;-76
2022/03/18 02:23:44;;;;;;;28.15;3.08;;;3.90;99.90;;;2.24;100.00;103410.97;4989866;28;20034;-76
2022/03/18 02:26:15;;;;;;;23.80;2.85;;;3.80;99.90;;;2.13;100.00;103408.03;4947391;28;20105;-76
2022/03/18 02:28:42;;;;;;;25.60;3.10;;;3.70;99.90;;;1.98;100.00;103410.16;4950445;28;20042;-76
2022/03/18 02:31:08;;;;;;;29.88;2.80;;;3.50;99.90;;;1.88;100.00;103405.50;4949406;28;20131;-77
2022/03/18 02:33:34;;;;;;;24.23;3.38;;;3.50;99.90;;;1.77;100.00;103421.63;4944945;28;20030;-76
2022/03/18 02:36:03;;;;;;;22.70;2.65;;;3.40;99.90;;;1.67;100.00;103418.69;4950879;28;20065;-76
2022/03/18 02:38:29;;;;;;;19.00;2.88;;;3.30;99.90;;;1.61;100.00;103421.94;4957928;28;20109;-77
2022/03/18 02:40:55;;;;;;;30.08;3.45;;;3.20;99.90;;;1.50;100.00;103418.13;4970019;28;20499;-76
2022/03/18 02:43:21;;;;;;;26.88;3.42;;;3.10;99.90;;;1.46;100.00;103421.44;4940140;28;20044;-77
2022/03/18 02:45:47;;;;;;;20.55;2.85;;;3.00;99.90;;;1.39;100.00;103421.22;4967334;28;20133;-77
2022/03/18 02:48:13;;;;;;;30.23;3.22;;;3.00;99.90;;;1.34;100.00;103433.16;4929480;28;20057;-77
2022/03/18 02:50:39;;;;;;;23.55;3.00;;;2.90;99.90;;;1.28;100.00;103435.53;4957825;28;20487;-76
2022/03/18 02:53:05;;;;;;;25.13;2.75;;;2.90;99.90;;;1.19;100.00;103428.31;4911048;28;20049;-76
2022/03/18 02:55:33;;;;;;;28.90;2.88;;;2.80;99.90;;;1.08;100.00;103440.03;4943380;28;20418;-76
2022/03/18 02:57:59;;;;;;;19.77;3.28;;;2.70;99.90;;;0.98;100.00;103446.56;4961188;28;20550;-77
2022/03/18 03:00:25;;;;;;;30.15;3.63;;;2.60;99.90;;;0.89;100.00;103453.16;4934005;28;20065;-77
2022/03/18 03:02:52;;;;;;;26.73;3.10;;;2.50;99.90;;;0.79;100.00;103450.19;4926907;28;20026;-76
2022/03/18 03:08:06;;;;;;;40.67;3.60;;;2.40;99.90;;;0.72;100.00;103462.91;4955714;28;20053;-77
2022/03/18 03:10:39;;;;;;;29.92;2.80;;;2.40;99.90;;;0.67;100.00;103469.59;4944912;28;20044;-76
2022/03/18 03:13:11;;;;;;;28.63;3.88;;;2.30;99.90;;;0.64;100.00;103472.09;4959510;28;20022;-77
2022/03/18 03:15:39;;;;;;;23.77;3.03;;;2.30;99.90;;;0.58;100.00;103478.81;4935936;28;20065;-77
2022/03/18 03:18:06;;;;;;;20.35;3.15;;;2.30;99.90;;;0.59;100.00;103483.16;4972530;28;20032;-76
2022/03/18 03:20:33;;;;;;;25.85;3.22;;;2.30;99.90;;;0.57;100.00;103483.94;4939089;28;20038;-76
2022/03/18 03:23:01;;;;;;;27.63;2.63;;;2.30;99.90;;;0.59;100.00;103493.53;4940904;28;20087;-76
2022/03/18 03:25:28;;;;;;;27.88;3.25;;;2.20;99.90;;;0.56;100.00;103496.00;4951038;28;20037;-77
2022/03/18 03:27:55;;;;;;;27.67;3.17;;;2.30;99.90;;;0.63;100.00;103498.81;4945803;28;20712;-77
2022/03/18 03:30:22;;;;;;;19.58;2.95;;;2.30;99.90;;;0.64;100.00;103508.38;4956496;28;20026;-76
2022/03/18 03:32:50;;;;;;;23.17;3.33;;;2.20;99.90;;;0.61;100.00;103512.63;4968959;28;20022;-76
2022/03/18 03:35:18;;;;;;;27.48;3.83;;;2.20;99.90;;;0.67;100.00;103513.69;4949560;28;20041;-76
2022/03/18 03:37:45;;;;;;;30.92;3.50;;;2.30;99.90;;;0.69;100.00;103510.34;4957089;28;20082;-76
2022/03/18 03:40:14;;;;;;;32.28;3.20;;;2.30;99.90;;;0.78;100.00;103515.00;4968697;28;20490;-76
2022/03/18 03:42:46;;;;;;;26.95;3.95;;;2.40;99.90;;;0.81;100.00;103509.91;4944657;28;20125;-76
2022/03/18 03:45:14;;;;;;;31.00;4.32;;;2.40;99.90;;;0.85;100.00;103518.72;4902938;28;20057;-76
2022/03/18 03:47:41;;;;;;;35.53;5.35;;;2.50;99.90;;;0.89;100.00;103510.22;4942842;28;20116;-76
2022/03/18 03:50:09;;;;;;;28.33;3.90;;;2.50;99.90;;;0.93;100.00;103518.19;4935878;28;20037;-76
2022/03/18 03:52:38;;;;;;;23.92;3.50;;;2.50;99.90;;;0.99;100.00;103518.41;4965079;28;20504;-76
2022/03/18 03:55:07;;;;;;;40.28;3.35;;;2.60;99.90;;;0.99;100.00;103526.19;4967864;28;20407;-75
2022/03/18 03:57:33;;;;;;;32.30;4.40;;;2.60;99.90;;;0.98;100.00;103523.53;5010558;28;20043;-76
2022/03/18 04:00:07;;;;;;;48.83;4.18;;;2.60;99.90;;;0.95;100.00;103531.19;4917187;28;20081;-76
2022/03/18 04:02:33;;;;;;;34.70;5.15;;;2.60;99.90;;;0.88;100.00;103532.66;4963446;28;20053;-76
2022/03/18 04:04:59;;;;;;;38.97;5.05;;;2.50;99.90;;;0.91;100.00;103525.03;4982117;28;20082;-76
2022/03/18 04:07:26;;;;;;;43.42;4.38;;;2.50;99.90;;;0.91;100.00;103526.75;4956477;28;20037;-76
2022/03/18 04:09:56;;;;;;;34.55;4.40;;;2.50;99.90;;;0.73;100.00;103530.34;4925945;28;20023;-76
2022/03/18 04:12:23;;;;;;;40.65;4.68;;;2.50;99.90;;;0.66;100.00;103530.09;4943508;28;20034;-76
2022/03/18 04:14:51;;;;;;;38.22;4.95;;;2.40;99.90;;;0.71;100.00;103542.38;4953412;28;20092;-76
2022/03/18 04:17:18;;;;;;;29.50;4.13;;;2.40;99.90;;;0.68;100.00;103537.09;4968803;28;20134;-76
2022/03/18 04:19:44;;;;;;;31.55;5.10;;;2.30;99.90;;;0.64;100.00;103542.97;4936228;28;20146;-76
2022/03/18 04:22:10;;;;;;;33.85;5.20;;;2.20;99.90;;;0.55;100.00;103548.69;4958891;28;20026;-76
2022/03/18 04:24:36;;;;;;;40.30;4.80;;;2.20;99.90;;;0.47;100.00;103549.19;4957671;28;20030;-75
2022/03/18 04:27:02;;;;;;;51.38;5.38;;;2.10;99.90;;;0.38;100.00;103549.72;4964773;28;21308;-75
2022/03/18 04:29:31;;;;;;;31.50;3.92;;;2.00;99.90;;;0.34;100.00;103555.59;4953048;28;20121;-76
2022/03/18 04:31:58;;;;;;;32.25;2.78;;;1.90;99.90;;;0.19;100.00;103561.03;4967328;28;20049;-76
2022/03/18 04:34:25;;;;;;;37.47;3.20;;;1.80;99.90;;;0.04;100.00;103560.38;4967881;28;20030;-76
2022/03/18 04:36:54;;;;;;;34.33;3.42;;;1.70;99.90;;;-0.12;100.00;103558.84;4938800;28;20022;-76
2022/03/18 04:39:20;;;;;;;38.53;3.28;;;1.60;99.90;;;-0.26;100.00;103566.91;4944905;28;20383;-76
2022/03/18 04:41:47;;;;;;;31.35;4.15;;;1.50;99.90;;;-0.35;100.00;103574.25;4946241;28;20031;-76
2022/03/18 04:44:13;;;;;;;27.13;4.50;;;1.40;99.90;;;-0.41;100.00;103566.25;4971472;28;20029;-76
2022/03/18 04:46:39;;;;;;;27.10;3.90;;;1.30;99.90;;;-0.46;100.00;103571.19;4952974;28;20034;-76
2022/03/18 04:49:08;;;;;;;29.98;3.92;;;1.30;99.90;;;-0.53;100.00;103571.75;4914406;28;20054;-76
2022/03/18 04:51:34;;;;;;;28.13;3.65;;;1.20;99.90;;;-0.58;100.00;103574.94;4971736;28;20045;-76
2022/03/18 04:54:03;;;;;;;29.48;4.03;;;1.10;99.90;;;-0.64;100.00;103581.63;4943825;28;20087;-76
2022/03/18 04:59:16;;;;;;;30.88;4.53;;;1.00;99.90;;;-0.85;100.00;103591.84;4962855;28;20099;-76
2022/03/18 05:01:42;;;;;;;72.20;4.30;;;0.90;99.90;;;-0.94;100.00;103598.31;4965210;28;20039;-76
2022/03/18 05:04:08;;;;;;;18.10;2.88;;;1.30;99.90;;;-1.05;100.00;103595.22;4953936;28;20026;-76
2022/03/18 05:06:34;;;;;;;14.25;3.17;;;0.70;99.90;;;-1.12;100.00;103601.81;4937089;28;20065;-76
2022/03/18 05:09:00;;;;;;;11.70;2.50;;;0.60;99.90;;;-1.17;100.00;103612.72;4965515;28;20021;-76
2022/03/18 05:11:26;;;;;;;14.77;3.15;;;0.50;99.90;;;-1.24;100.00;103614.13;4920193;28;20030;-76
2022/03/18 05:13:58;;;;;;;20.60;3.78;;;0.50;99.90;;;-1.30;100.00;103621.59;4935545;28;20035;-76
2022/03/18 05:16:25;;;;;;;28.98;4.22;;;0.40;99.90;;;-1.35;100.00;103631.72;4971749;28;20026;-76
2022/03/18 05:18:52;;;;;;;31.55;3.83;;;0.40;99.90;;;-1.34;100.00;103622.25;4958261;28;20053;-76
2022/03/18 05:21:19;;;;;;;32.40;4.85;;;0.40;99.90;;;-1.31;100.00;103617.25;4975492;28;20072;-76
2022/03/18 05:23:49;;;;;;;34.95;5.47;;;0.40;99.90;;;-1.23;100.00;103618.50;4942295;28;20034;-76
2022/03/18 05:26:15;;;;;;;33.55;4.93;;;1.30;99.90;;;-1.12;100.00;103624.19;4939967;28;20022;-76
2022/03/18 05:28:42;;;;;;;43.33;5.63;;;0.50;99.90;;;-1.04;100.00;103622.84;4946694;28;20042;-76
2022/03/18 05:31:09;;;;;;;48.47;5.55;;;0.60;99.90;;;-0.94;100.00;103625.06;4955237;28;20057;-76
2022/03/18 05:33:35;;;;;;;41.13;4.85;;;0.60;99.90;;;-0.84;100.00;103618.63;4950120;28;20036;-76
2022/03/18 05:36:08;;;;;;;47.65;4.90;;;0.70;99.90;;;-0.74;100.00;103622.53;4948678;28;20037;-76
2022/03/18 05:38:34;;;;;;;31.88;4.72;;;0.80;99.90;;;-0.66;100.00;103622.06;4931811;28;20037;-76
2022/03/18 05:41:00;;;;;;;35.97;4.32;;;0.80;99.90;;;-0.57;100.00;103620.72;4929748;28;20491;-77
2022/03/18 05:43:26;;;;;;;27.35;4.05;;;0.90;99.90;;;-0.50;100.00;103618.47;4978089;28;20121;-76
2022/03/18 05:45:52;;;;;;;39.90;5.28;;;1.00;99.90;;;-0.40;100.00;103622.38;4930794;28;20038;-76
2022/03/18 05:48:22;;;;;;;42.28;4.90;;;1.00;99.90;;;-0.29;100.00;103630.63;4939012;28;20030;-76
2022/03/18 05:50:48;;;;;;;42.25;4.95;;;1.10;99.90;;;-0.15;100.00;103629.53;4918246;28;20785;-77
2022/03/18 05:53:14;;;;;;;62.35;5.35;;;1.20;99.90;;;-0.01;100.00;103633.59;4950291;28;20103;-76
2022/03/18 05:58:25;;;;;;;46.03;4.97;;;1.50;99.90;;;0.50;100.00;103637.50;4960733;28;20060;-76
2022/03/18 06:00:54;;;;;;;39.17;5.80;;;1.60;99.90;;;0.84;100.00;103642.31;4941389;28;21044;-76
2022/03/18 06:03:20;;;;;;;42.45;5.28;;;1.80;99.90;;;1.56;100.00;103642.56;4966597;28;20071;-76
2022/03/18 06:05:46;;;;;;;44.25;5.65;;;2.00;99.90;;;1.27;100.00;103651.81;4975738;28;20041;-76
2022/03/18 06:13:44;;;;;;;42.90;5.97;;;3.40;99.90;;;5.55;91.65;103676.88;4957671;28;20176;-76
2022/03/18 06:16:10;;;;;;;41.70;5.43;;;3.80;99.90;;;4.40;88.92;103678.44;4950739;28;20117;-77
2022/03/18 06:18:36;;;;;;;43.42;5.55;;;4.20;99.90;;;6.11;86.84;103685.84;4962802;28;20050;-77
2022/03/18 06:21:09;;;;;;;47.13;5.38;;;4.60;99.90;;;7.25;82.16;103699.16;4929800;28;20022;-76
2022/03/18 06:23:35;;;;;;;44.78;6.05;;;5.30;99.90;;;8.95;74.17;103696.72;4962945;28;20025;-76
2022/03/18 06:26:02;;;;;;;34.83;4.90;;;5.90;99.90;;;9.78;69.42;103706.00;4972819;28;20603;-76
2022/03/18 06:28:28;;;;;;;40.83;5.93;;;6.40;99.90;;;8.67;68.18;103707.00;4963777;28;20053;-77
2022/03/18 06:30:55;;;;;;;48.83;5.15;;;6.50;99.90;;;7.68;70.58;103715.47;4936917;28;20090;-76
2022/03/18 06:33:20;;;;;;;36.58;4.85;;;6.50;99.90;;;7.80;71.99;103718.28;4970839;28;20050;-77
2022/03/18 06:35:49;;;;;;;42.50;4.93;;;6.60;99.90;;;9.11;70.47;103727.50;4926825;28;20112;-77
2022/03/18 06:38:15;;;;;;;32.80;4.57;;;6.90;99.90;;;9.08;68.62;103727.47;4938632;28;20036;-77
2022/03/18 06:40:41;;;;;;;46.53;5.18;;;7.20;99.90;;;10.19;68.20;103734.19;4940744;28;20062;-77
2022/03/18 06:43:07;;;;;;;42.15;5.35;;;7.70;99.90;;;12.93;63.04;103752.03;4915823;28;20019;-77
2022/03/18 06:45:33;;;;;;;42.67;6.55;;;8.80;99.90;;;16.58;52.90;103769.28;4958008;28;20042;-77
2022/03/18 06:47:59;;;;;;;31.92;5.25;;;10.20;99.90;;;18.40;46.56;103781.25;4962673;28;20045;-77
2022/03/18 06:50:27;;;;;;;33.13;4.35;;;11.50;99.90;;;19.45;43.60;103804.50;4956369;28;20130;-77
2022/03/18 06:52:53;;;;;;;24.83;4.45;;;12.30;99.90;;;19.36;41.98;103827.06;4937487;28;20053;-76
2022/03/18 06:55:19;;;;;;;23.58;3.97;;;12.90;99.90;;;19.67;41.41;103823.31;4963643;28;20049;-77
2022/03/18 06:57:45;;;;;;;27.90;4.45;;;13.40;99.90;;;20.25;40.60;103831.00;4964575;28;20125;-77
2022/03/18 07:00:12;;;;;;;28.00;4.57;;;14.00;99.90;;;20.64;39.66;103851.81;4961855;28;20036;-77
2022/03/18 07:02:38;;;;;;;31.33;4.63;;;14.50;99.90;;;20.94;39.04;103860.41;4972108;28;20518;-77
2022/03/18 07:05:05;;;;;;;27.92;4.78;;;14.90;99.90;;;21.29;38.92;103871.44;4963180;28;20030;-76
2022/03/18 07:07:31;;;;;;;35.78;4.72;;;15.50;99.90;;;22.06;37.71;103879.72;4960326;28;20046;-77
2022/03/18 07:09:56;;;;;;;37.47;5.13;;;16.30;99.90;;;23.05;36.55;103881.31;4935411;28;20513;-77
2022/03/18 07:12:23;;;;;;;40.45;5.47;;;17.10;99.90;;;23.87;35.16;103898.69;4998468;28;20467;-76
2022/03/18 07:14:49;;;;;;;32.95;5.07;;;17.90;99.90;;;24.30;34.53;103907.13;4963443;28;20538;-77
2022/03/18 07:20:00;;;;;;;38.30;6.00;;;19.80;99.90;;;25.98;32.64;103918.03;4954034;28;20111;-76
2022/03/18 07:22:26;;;;;;;35.60;5.45;;;20.70;99.90;;;26.60;32.06;103924.94;4951104;28;20034;-77
2022/03/18 07:24:52;;;;;;;36.75;5.13;;;21.60;98.70;;;27.32;30.80;103931.00;4939125;28;20030;-76
2022/03/18 07:27:18;;;;;;;33.28;5.80;;;22.20;95.00;;;27.16;30.57;103946.50;4960333;28;20018;-76
2022/03/18 07:29:44;;;;;;;34.55;5.65;;;22.40;93.00;;;26.91;30.22;103950.84;4954411;28;20029;-77
2022/03/18 07:32:10;;;;;;;33.97;5.80;;;22.50;93.10;;;26.33;31.22;103954.56;4952447;28;20529;-77
2022/03/18 07:34:37;;;;;;;38.47;5.72;;;22.10;92.90;;;24.96;32.83;103944.69;4976979;28;20046;-77
2022/03/18 07:37:04;;;;;;;36.17;5.50;;;22.10;93.20;;;25.36;32.71;103955.06;4972170;28;20144;-76
2022/03/18 07:39:32;;;;;;;39.58;5.88;;;22.10;92.40;;;25.34;32.55;103962.38;4962105;28;20114;-76
2022/03/18 07:41:58;;;;;;;32.13;5.18;;;22.10;92.00;;;24.72;33.06;103971.22;4970558;28;20026;-77
2022/03/18 07:44:24;;;;;;;33.22;6.28;;;21.90;92.00;;;24.43;33.71;103972.81;4967824;28;20038;-76
2022/03/18 07:46:50;;;;;;;35.90;5.78;;;22.10;92.40;;;24.74;33.42;103966.63;4928550;28;20053;-76
2022/03/18 07:49:16;;;;;;;26.00;4.78;;;22.10;92.40;;;24.30;34.05;103975.31;4970079;28;20030;-76
2022/03/18 07:51:42;;;;;;;30.17;5.53;;;22.10;91.60;;;23.86;34.36;103972.28;4941642;28;20077;-76
2022/03/18 07:54:08;;;;;;;30.30;5.03;;;22.00;91.60;;;23.54;35.16;103972.97;4942021;28;20037;-76
2022/03/18 07:56:34;;;;;;;31.42;4.65;;;22.00;91.30;;;23.33;35.20;103984.78;4962029;28;20162;-77
2022/03/18 07:59:00;;;;;;;32.00;4.70;;;21.80;91.80;;;22.82;36.24;103980.97;4957384;28;20037;-77
2022/03/18 08:01:26;;;;;;;33.35;5.78;;;21.50;91.10;;;22.51;36.32;104001.19;4967912;28;20045;-77
2022/03/18 08:03:52;;;;;;;28.95;5.40;;;21.50;92.10;;;22.65;36.58;104006.78;4967112;28;20030;-76
2022/03/18 08:06:20;;;;;;;37.00;5.50;;;21.50;91.90;;;22.39;36.90;103997.25;4947388;28;20508;-77
2022/03/18 08:08:46;;;;;;;32.00;5.32;;;21.60;92.00;;;21.88;38.00;104010.19;4962114;28;20038;-77
2022/03/18 08:11:17;;;;;;;28.33;4.82;;;21.40;91.80;;;21.82;37.68;104004.22;4947318;28;20046;-76
2022/03/18 08:13:45;;;;;;;27.10;5.07;;;21.30;92.00;;;21.56;38.21;104006.19;4967227;28;20428;-77
2022/03/18 08:16:13;;;;;;;27.10;4.57;;;21.30;91.80;;;21.68;38.04;104007.47;4947847;28;20450;-77
2022/03/18 08:18:39;;;;;;;24.63;4.63;;;21.30;90.80;;;21.41;38.05;104010.34;4964841;28;20046;-77
2022/03/18 08:21:05;;;;;;;29.73;5.38;;;21.10;91.00;;;20.87;39.20;104015.13;4964880;28;20030;-76
2022/03/18 08:23:33;;;;;;;25.33;5.13;;;21.00;91.30;;;20.76;38.72;104019.16;4968087;28;20400;-77
2022/03/18 08:25:59;;;;;;;25.48;4.57;;;21.10;91.00;;;21.01;38.85;104024.44;4960305;28;20035;-77
2022/03/18 08:28:25;;;;;;;31.00;5.15;;;21.20;91.00;;;20.84;38.88;104028.66;4952342;28;20108;-77
2022/03/18 08:30:51;;;;;;;33.53;4.57;;;21.50;91.10;;;21.15;38.61;104029.28;4968925;28;20065;-77
2022/03/18 08:33:19;;;;;;;30.20;4.82;;;21.80;91.00;;;21.44;38.45;104034.34;4977187;28;20120;-77
2022/03/18 08:35:46;;;;;;;29.95;5.22;;;22.30;91.80;;;22.00;38.15;104043.66;4929121;28;20025;-77
2022/03/18 08:38:12;;;;;;;31.30;5.28;;;22.90;88.30;;;22.40;36.69;104058.06;4945271;28;20066;-77
2022/03/18 08:40:38;;;;;;;27.98;4.60;;;23.20;86.60;;;22.35;36.46;104064.56;4958841;28;20553;-77
2022/03/18 08:43:09;;;;;;;26.00;4.45;;;23.00;86.90;;;21.91;37.34;104061.00;4945399;28;20390;-77
2022/03/18 08:45:36;;;;;;;22.73;3.72;;;23.20;89.90;;;22.28;36.86;104072.88;4950461;28;20031;-78
2022/03/18 08:48:03;;;;;;;25.92;4.32;;;23.40;85.80;;;22.24;36.56;104079.31;4953649;28;20043;-77
2022/03/18 08:50:29;;;;;;;22.48;3.90;;;23.10;84.10;;;21.61;36.42;104087.28;4970375;28;20038;-77
2022/03/18 08:52:57;;;;;;;28.77;4.82;;;22.50;86.00;;;20.88;37.66;104094.56;4971334;28;20096;-77
2022/03/18 08:55:24;;;;;;;22.95;4.43;;;21.90;84.90;;;20.29;38.46;104090.38;4919954;28;21047;-76
2022/03/18 08:57:50;;;;;;;22.70;4.30;;;21.40;87.80;;;19.68;39.61;104092.41;4970082;28;20434;-77
2022/03/18 09:00:22;;;;;;;16.83;3.55;;;20.90;89.20;;;19.36;40.69;104085.38;4963601;28;20015;-77
2022/03/18 09:02:48;;;;;;;22.02;3.97;;;20.30;90.30;;;18.72;41.92;104080.09;4956050;28;20022;-76
2022/03/18 09:05:16;;;;;;;19.17;3.70;;;19.80;90.80;;;18.18;42.68;104087.72;4949831;28;20037;-77
2022/03/18 09:07:42;;;;;;;23.88;4.28;;;19.30;91.20;;;17.92;42.88;104090.19;4974832;28;20026;-77
2022/03/18 09:10:12;;;;;;;24.50;4.13;;;18.80;92.20;;;17.27;44.92;104080.09;4958393;28;20046;-77
2022/03/18 09:12:52;;;;;;;22.38;3.85;;;18.60;93.70;;;17.29;45.12;104081.81;4958138;28;20046;-76
2022/03/18 09:15:18;;;;;;;28.55;4.65;;;18.50;93.70;;;17.22;45.33;104073.09;4963235;28;20554;-77
2022/03/18 09:17:44;;;;;;;17.98;3.85;;;18.00;93.50;;;16.97;45.71;104082.50;4968281;28;20034;-76
2022/03/18 09:20:10;;;;;;;20.08;3.95;;;17.60;93.50;;;16.40;46.38;104081.75;4940480;28;20042;-77
2022/03/18 09:22:36;;;;;;;23.17;3.90;;;17.30;94.30;;;16.31;46.77;104081.94;4958470;28;20027;-76
2022/03/18 09:25:03;;;;;;;19.77;3.83;;;17.10;95.10;;;16.20;47.18;104074.13;4972479;28;20027;-77
2022/03/18 09:27:29;;;;;;;24.50;4.00;;;16.90;95.60;;;16.16;47.82;104074.22;4961032;28;20054;-77
2022/03/18 09:29:57;;;;;;;22.80;4.10;;;16.80;96.30;;;16.19;48.53;104076.81;4977544;28;20030;-76
2022/03/18 09:32:23;;;;;;;22.25;4.07;;;16.70;96.30;;;16.04;48.34;104077.06;4960841;28;20097;-76
2022/03/18 09:34:49;;;;;;;25.23;3.83;;;16.50;96.40;;;15.71;48.91;104074.94;4969414;28;20030;-76
2022/03/18 09:37:15;;;;;;;23.73;4.25;;;16.20;96.70;;;15.31;49.69;104075.47;4968484;28;20030;-76
2022/03/18 09:39:41;;;;;;;23.90;3.95;;;16.00;96.90;;;14.90;50.71;104063.59;4934365;28;20479;-76
2022/03/18 09:42:08;;;;;;;20.35;3.58;;;15.80;97.40;;;14.67;51.93;104065.63;4936839;28;20026;-76
2022/03/18 09:44:38;;;;;;;21.83;4.50;;;15.60;97.80;;;14.50;52.59;104061.34;4936638;28;20046;-76
2022/03/18 09:47:07;;;;;;;25.23;4.40;;;15.50;98.50;;;14.40;53.59;104061.44;4954831;28;20391;-76
2022/03/18 09:49:36;;;;;;;24.20;4.20;;;15.30;98.40;;;14.15;53.37;104067.84;4966007;28;20026;-76
2022/03/18 09:52:06;;;;;;;21.60;4.07;;;15.10;99.40;;;13.93;54.78;104066.25;4969620;28;20565;-76
2022/03/18 09:54:34;;;;;;;21.42;4.00;;;15.00;99.20;;;13.81;54.78;104069.00;4969688;28;20027;-76
2022/03/18 09:57:02;;;;;;;20.95;3.60;;;14.90;99.40;;;13.85;54.43;104061.03;4955062;28;20031;-77
2022/03/18 09:59:29;;;;;;;19.90;3.80;;;14.90;99.70;;;13.86;54.73;104075.13;4960790;28;20034;-77
2022/03/18 10:02:29;;;;;;;17.67;3.40;;;14.90;99.90;;;13.85;55.41;104068.97;4955434;28;20058;-76
2022/03/18 10:05:02;;;;;;;23.48;4.28;;;14.90;99.90;;;13.90;55.09;104066.28;4959302;28;20423;-76
2022/03/18 10:07:36;;;;;;;23.20;4.40;;;14.90;99.90;;;13.91;55.43;104073.34;4959257;28;20079;-76
2022/03/18 10:10:16;;;;;;;20.63;4.13;;;14.90;99.90;;;13.90;55.21;104074.22;4945291;28;20038;-77
2022/03/18 10:12:50;;;;;;;22.85;3.47;;;14.80;99.60;;;13.52;54.76;104070.97;4983964;28;20069;-77
2022/03/18 10:15:23;;;;;;;22.08;3.75;;;14.70;99.90;;;13.49;55.94;104081.53;4943745;28;20038;-76
2022/03/18 10:17:51;;;;;;;24.42;4.15;;;14.50;99.90;;;13.45;55.87;104078.94;4961298;28;20026;-76
2022/03/18 10:20:35;;;;;;;25.95;3.60;;;14.60;99.90;;;13.48;55.24;104076.28;4941980;28;20069;-76
2022/03/18 10:23:19;;;;;;;20.35;3.40;;;14.60;99.90;;;13.48;55.14;104078.94;4974213;28;20026;-76
2022/03/18 10:25:57;;;;;;;21.58;4.00;;;14.50;99.90;;;13.44;55.64;104077.19;4951164;28;20030;-77
2022/03/18 10:28:43;;;;;;;22.75;3.95;;;14.50;99.90;;;13.59;55.53;104068.28;4961420;28;20030;-76
2022/03/18 10:31:21;;;;;;;18.60;3.73;;;14.60;99.90;;;13.64;55.15;104079.72;4967110;28;20046;-76
2022/03/18 10:37:08;;;;;;;17.05;3.67;;;14.70;99.30;;;13.65;54.61;104081.44;4956904;28;20577;-76
2022/03/18 10:39:42;;;;;;;14.07;2.90;;;14.60;99.60;;;13.48;54.61;104084.22;4977289;28;20049;-77